sensor_id;sensor_type;location;lat;lon;timestamp;pressure;altitude;pressure_sealevel;temperature;humidity
51099;BME280;37146;48.210;16.234;2022-12-10T00:01:24;97511.28;;;1.36;100.00
51099;BME280;37146;48.210;16.234;2022-12-10T00:03:49;97517.59;;;1.32;100.00
51099;BME280;37146;48.210;16.234;2022-12-10T00:06:17;97521.25;;;1.28;100.00
51099;BME280;37146;48.210;16.234;2022-12-10T00:08:43;97514.28;;;1.27;100.00
51099;BME280;37146;48.210;16.234;2022-12-10T00:11:09;97519.00;;;1.41;100.00
51099;BME280;37146;48.210;16.234;2022-12-10T00:13:35;97519.53;;;1.27;100.00
51099;BME280;37146;48.210;16.234;2022-12-10T00:16:01;97516.09;;;1.25;100.00
51099;BME280;37146;48.210;16.234;2022-12-10T00:18:26;97511.72;;;1.26;100.00
51099;BME280;37146;48.210;16.234;2022-12-10T00:20:51;97514.53;;;1.21;100.00
51099;BME280;37146;48.210;16.234;2022-12-10T00:23:17;97518.06;;;1.20;100.00
51099;BME280;37146;48.210;16.234;2022-12-10T00:25:42;97528.59;;;1.20;100.00
51099;BME280;37146;48.210;16.234;2022-12-10T00:28:07;97524.06;;;1.23;100.00
51099;BME280;37146;48.210;16.234;2022-12-10T00:30:33;97527.78;;;1.18;100.00
51099;BME280;37146;48.210;16.234;2022-12-10T00:32:58;97526.41;;;1.31;100.00
51099;BME280;37146;48.210;16.234;2022-12-10T00:35:23;97523.38;;;1.18;100.00
51099;BME280;37146;48.210;16.234;2022-12-10T00:37:49;97524.34;;;1.16;100.00
51099;BME280;37146;48.210;16.234;2022-12-10T00:40:14;97525.91;;;1.21;100.00
51099;BME280;37146;48.210;16.234;2022-12-10T00:42:39;97534.88;;;1.16;100.00
51099;BME280;37146;48.210;16.234;2022-12-10T00:45:04;97537.25;;;1.23;100.00
51099;BME280;37146;48.210;16.234;2022-12-10T00:47:30;97539.00;;;1.23;100.00
51099;BME280;37146;48.210;16.234;2022-12-10T00:49:55;97545.44;;;1.16;100.00
51099;BME280;37146;48.210;16.234;2022-12-10T00:52:21;97550.41;;;1.23;100.00
51099;BME280;37146;48.210;16.234;2022-12-10T00:54:46;97557.44;;;1.23;100.00
51099;BME280;37146;48.210;16.234;2022-12-10T00:57:11;97558.53;;;1.17;100.00
51099;BME280;37146;48.210;16.234;2022-12-10T00:59:36;97563.75;;;1.19;100.00
51099;BME280;37146;48.210;16.234;2022-12-10T01:02:02;97562.25;;;1.12;100.00
51099;BME280;37146;48.210;16.234;2022-12-10T01:04:27;97550.75;;;1.14;100.00
51099;BME280;37146;48.210;16.234;2022-12-10T01:06:52;97540.25;;;1.13;100.00
51099;BME280;37146;48.210;16.234;2022-12-10T01:09:19;97551.59;;;1.15;100.00
51099;BME280;37146;48.210;16.234;2022-12-10T01:11:46;97553.44;;;1.13;100.00
51099;BME280;37146;48.210;16.234;2022-12-10T01:14:13;97552.47;;;1.15;100.00
51099;BME280;37146;48.210;16.234;2022-12-10T01:16:39;97562.03;;;1.18;100.00
51099;BME280;37146;48.210;16.234;2022-12-10T01:19:04;97566.50;;;1.16;100.00
51099;BME280;37146;48.210;16.234;2022-12-10T01:21:30;97561.13;;;1.19;100.00
51099;BME280;37146;48.210;16.234;2022-12-10T01:23:56;97555.59;;;1.25;100.00
51099;BME280;37146;48.210;16.234;2022-12-10T01:26:23;97545.97;;;1.24;100.00
51099;BME280;37146;48.210;16.234;2022-12-10T01:28:49;97532.31;;;1.14;100.00
51099;BME280;37146;48.210;16.234;2022-12-10T01:31:16;97550.44;;;1.22;100.00
51099;BME280;37146;48.210;16.234;2022-12-10T01:33:42;97546.72;;;1.28;100.00
51099;BME280;37146;48.210;16.234;2022-12-10T01:36:11;97546.13;;;1.21;100.00
51099;BME280;37146;48.210;16.234;2022-12-10T01:38:37;97544.41;;;1.20;100.00
51099;BME280;37146;48.210;16.234;2022-12-10T01:41:03;97533.72;;;1.23;100.00
51099;BME280;37146;48.210;16.234;2022-12-10T01:43:29;97540.72;;;1.24;100.00
51099;BME280;37146;48.210;16.234;2022-12-10T01:46:12;97549.59;;;1.21;100.00
51099;BME280;37146;48.210;16.234;2022-12-10T01:48:37;97553.78;;;1.27;100.00
51099;BME280;37146;48.210;16.234;2022-12-10T01:51:03;97556.41;;;1.27;100.00
51099;BME280;37146;48.210;16.234;2022-12-10T01:53:28;97550.91;;;1.33;100.00
51099;BME280;37146;48.210;16.234;2022-12-10T01:55:53;97555.22;;;1.36;100.00
51099;BME280;37146;48.210;16.234;2022-12-10T01:58:18;97563.41;;;1.28;100.00
51099;BME280;37146;48.210;16.234;2022-12-10T02:01:27;97574.78;;;1.29;100.00
51099;BME280;37146;48.210;16.234;2022-12-10T02:03:35;97576.50;;;1.30;100.00
51099;BME280;37146;48.210;16.234;2022-12-10T02:08:43;97578.34;;;1.28;100.00
51099;BME280;37146;48.210;16.234;2022-12-10T02:13:40;97586.66;;;1.17;100.00
51099;BME280;37146;48.210;16.234;2022-12-10T02:18:56;97590.09;;;1.19;100.00
51099;BME280;37146;48.210;16.234;2022-12-10T02:21:21;97583.66;;;1.26;100.00
51099;BME280;37146;48.210;16.234;2022-12-10T02:23:55;97579.31;;;1.25;100.00
51099;BME280;37146;48.210;16.234;2022-12-10T02:26:24;97577.25;;;1.33;100.00
51099;BME280;37146;48.210;16.234;2022-12-10T02:31:23;97569.88;;;1.19;100.00
51099;BME280;37146;48.210;16.234;2022-12-10T02:33:51;97573.06;;;1.28;100.00
51099;BME280;37146;48.210;16.234;2022-12-10T02:36:19;97569.81;;;1.21;100.00
51099;BME280;37146;48.210;16.234;2022-12-10T02:38:46;97581.13;;;1.23;100.00
51099;BME280;37146;48.210;16.234;2022-12-10T02:41:33;97585.66;;;1.19;100.00
51099;BME280;37146;48.210;16.234;2022-12-10T02:43:58;97586.41;;;1.23;100.00
51099;BME280;37146;48.210;16.234;2022-12-10T02:46:24;97591.91;;;1.17;100.00
51099;BME280;37146;48.210;16.234;2022-12-10T02:48:50;97590.91;;;1.21;100.00
51099;BME280;37146;48.210;16.234;2022-12-10T02:51:16;97595.22;;;1.22;100.00
51099;BME280;37146;48.210;16.234;2022-12-10T02:53:44;97592.81;;;1.16;100.00
51099;BME280;37146;48.210;16.234;2022-12-10T02:56:24;97591.81;;;1.20;100.00
51099;BME280;37146;48.210;16.234;2022-12-10T03:04:36;97591.91;;;1.17;100.00
51099;BME280;37146;48.210;16.234;2022-12-10T03:07:09;97590.81;;;1.22;100.00
51099;BME280;37146;48.210;16.234;2022-12-10T03:09:40;97581.47;;;1.14;100.00
51099;BME280;37146;48.210;16.234;2022-12-10T03:12:21;97586.75;;;1.14;100.00
51099;BME280;37146;48.210;16.234;2022-12-10T03:14:50;97586.41;;;1.23;100.00
51099;BME280;37146;48.210;16.234;2022-12-10T03:17:15;97584.66;;;1.23;100.00
51099;BME280;37146;48.210;16.234;2022-12-10T03:19:45;97587.38;;;1.20;100.00
51099;BME280;37146;48.210;16.234;2022-12-10T03:22:14;97590.13;;;1.17;100.00
51099;BME280;37146;48.210;16.234;2022-12-10T03:24:40;97586.31;;;1.26;100.00
51099;BME280;37146;48.210;16.234;2022-12-10T03:27:07;97577.13;;;1.13;100.00
51099;BME280;37146;48.210;16.234;2022-12-10T03:29:45;97570.59;;;1.23;100.00
51099;BME280;37146;48.210;16.234;2022-12-10T03:32:11;97582.94;;;1.22;100.00
51099;BME280;37146;48.210;16.234;2022-12-10T03:34:36;97578.47;;;1.25;100.00
51099;BME280;37146;48.210;16.234;2022-12-10T03:37:02;97577.38;;;1.30;100.00
51099;BME280;37146;48.210;16.234;2022-12-10T03:39:28;97580.28;;;1.22;100.00
51099;BME280;37146;48.210;16.234;2022-12-10T03:41:54;97584.00;;;1.17;100.00
51099;BME280;37146;48.210;16.234;2022-12-10T03:44:29;97580.06;;;1.29;100.00
51099;BME280;37146;48.210;16.234;2022-12-10T03:46:55;97591.00;;;1.18;100.00
51099;BME280;37146;48.210;16.234;2022-12-10T03:49:20;97602.44;;;1.17;100.00
51099;BME280;37146;48.210;16.234;2022-12-10T03:51:45;97610.28;;;1.18;100.00
51099;BME280;37146;48.210;16.234;2022-12-10T03:54:10;97604.28;;;1.15;100.00
51099;BME280;37146;48.210;16.234;2022-12-10T03:56:35;97615.44;;;1.21;100.00
51099;BME280;37146;48.210;16.234;2022-12-10T03:59:01;97625.06;;;1.22;100.00
51099;BME280;37146;48.210;16.234;2022-12-10T04:01:26;97628.53;;;1.23;100.00
51099;BME280;37146;48.210;16.234;2022-12-10T04:03:51;97637.25;;;1.25;100.00
51099;BME280;37146;48.210;16.234;2022-12-10T04:06:17;97633.06;;;1.19;100.00
51099;BME280;37146;48.210;16.234;2022-12-10T04:08:43;97639.38;;;1.15;100.00
51099;BME280;37146;48.210;16.234;2022-12-10T04:11:09;97641.84;;;1.20;100.00
51099;BME280;37146;48.210;16.234;2022-12-10T04:13:35;97635.19;;;1.33;100.00
51099;BME280;37146;48.210;16.234;2022-12-10T04:16:19;97635.25;;;1.32;100.00
51099;BME280;37146;48.210;16.234;2022-12-10T04:18:57;97629.72;;;1.39;100.00
51099;BME280;37146;48.210;16.234;2022-12-10T04:21:23;97640.69;;;1.27;100.00
51099;BME280;37146;48.210;16.234;2022-12-10T04:24:08;97647.91;;;1.22;100.00
51099;BME280;37146;48.210;16.234;2022-12-10T04:26:52;97642.59;;;1.23;100.00
51099;BME280;37146;48.210;16.234;2022-12-10T04:29:18;97633.81;;;1.23;100.00
51099;BME280;37146;48.210;16.234;2022-12-10T04:31:44;97638.41;;;1.18;100.00
51099;BME280;37146;48.210;16.234;2022-12-10T04:34:09;97641.13;;;1.15;100.00
51099;BME280;37146;48.210;16.234;2022-12-10T04:36:34;97652.31;;;1.21;100.00
51099;BME280;37146;48.210;16.234;2022-12-10T04:38:59;97655.69;;;1.25;100.00
51099;BME280;37146;48.210;16.234;2022-12-10T04:41:24;97653.06;;;1.25;100.00
51099;BME280;37146;48.210;16.234;2022-12-10T04:43:50;97650.41;;;1.27;100.00
51099;BME280;37146;48.210;16.234;2022-12-10T04:46:16;97638.97;;;1.26;100.00
51099;BME280;37146;48.210;16.234;2022-12-10T04:48:41;97642.34;;;1.30;100.00
51099;BME280;37146;48.210;16.234;2022-12-10T04:51:07;97636.50;;;1.21;100.00
51099;BME280;37146;48.210;16.234;2022-12-10T04:53:32;97621.34;;;1.28;100.00
51099;BME280;37146;48.210;16.234;2022-12-10T04:55:57;97622.16;;;1.30;100.00
51099;BME280;37146;48.210;16.234;2022-12-10T04:58:22;97612.56;;;1.28;100.00
51099;BME280;37146;48.210;16.234;2022-12-10T05:00:48;97628.34;;;1.29;100.00
51099;BME280;37146;48.210;16.234;2022-12-10T05:03:13;97626.63;;;1.28;100.00
51099;BME280;37146;48.210;16.234;2022-12-10T05:05:38;97628.63;;;1.21;100.00
51099;BME280;37146;48.210;16.234;2022-12-10T05:08:04;97631.06;;;1.26;100.00
51099;BME280;37146;48.210;16.234;2022-12-10T05:10:29;97630.34;;;1.22;100.00
51099;BME280;37146;48.210;16.234;2022-12-10T05:12:54;97627.59;;;1.26;100.00
51099;BME280;37146;48.210;16.234;2022-12-10T05:15:20;97619.06;;;1.19;100.00
51099;BME280;37146;48.210;16.234;2022-12-10T05:17:46;97628.78;;;1.17;100.00
51099;BME280;37146;48.210;16.234;2022-12-10T05:20:11;97620.06;;;1.15;100.00
51099;BME280;37146;48.210;16.234;2022-12-10T05:22:36;97612.97;;;1.17;100.00
51099;BME280;37146;48.210;16.234;2022-12-10T05:25:20;97618.00;;;1.23;100.00
51099;BME280;37146;48.210;16.234;2022-12-10T05:27:45;97625.63;;;1.31;100.00
51099;BME280;37146;48.210;16.234;2022-12-10T05:30:11;97626.03;;;1.20;100.00
51099;BME280;37146;48.210;16.234;2022-12-10T05:32:36;97621.69;;;1.19;100.00
51099;BME280;37146;48.210;16.234;2022-12-10T05:35:02;97622.59;;;1.18;100.00
51099;BME280;37146;48.210;16.234;2022-12-10T05:37:27;97613.81;;;1.17;100.00
51099;BME280;37146;48.210;16.234;2022-12-10T05:39:53;97625.97;;;1.21;100.00
51099;BME280;37146;48.210;16.234;2022-12-10T05:42:19;97628.69;;;1.20;100.00
51099;BME280;37146;48.210;16.234;2022-12-10T05:44:44;97627.53;;;1.27;100.00
51099;BME280;37146;48.210;16.234;2022-12-10T05:47:09;97628.78;;;1.17;100.00
51099;BME280;37146;48.210;16.234;2022-12-10T05:49:34;97635.06;;;1.13;100.00
51099;BME280;37146;48.210;16.234;2022-12-10T05:52:00;97643.56;;;1.21;100.00
51099;BME280;37146;48.210;16.234;2022-12-10T05:54:25;97647.16;;;1.18;100.00
51099;BME280;37146;48.210;16.234;2022-12-10T05:56:50;97646.94;;;1.25;100.00
51099;BME280;37146;48.210;16.234;2022-12-10T05:59:15;97654.31;;;1.15;100.00
51099;BME280;37146;48.210;16.234;2022-12-10T06:01:40;97653.50;;;1.13;100.00
51099;BME280;37146;48.210;16.234;2022-12-10T06:04:06;97652.56;;;1.15;100.00
51099;BME280;37146;48.210;16.234;2022-12-10T06:06:35;97658.75;;;1.13;100.00
51099;BME280;37146;48.210;16.234;2022-12-10T06:09:01;97660.66;;;1.09;100.00
51099;BME280;37146;48.210;16.234;2022-12-10T06:11:27;97667.47;;;1.15;100.00
51099;BME280;37146;48.210;16.234;2022-12-10T06:13:53;97672.91;;;1.10;100.00
51099;BME280;37146;48.210;16.234;2022-12-10T06:16:19;97679.91;;;1.11;100.00
51099;BME280;37146;48.210;16.234;2022-12-10T06:18:45;97682.44;;;1.14;100.00
51099;BME280;37146;48.210;16.234;2022-12-10T06:21:12;97684.03;;;1.18;100.00
51099;BME280;37146;48.210;16.234;2022-12-10T06:23:38;97686.50;;;1.23;100.00
51099;BME280;37146;48.210;16.234;2022-12-10T06:26:04;97686.66;;;1.18;100.00
51099;BME280;37146;48.210;16.234;2022-12-10T06:28:29;97686.81;;;1.14;100.00
51099;BME280;37146;48.210;16.234;2022-12-10T06:30:57;97686.81;;;1.14;100.00
51099;BME280;37146;48.210;16.234;2022-12-10T06:33:22;97694.94;;;1.07;100.00
51099;BME280;37146;48.210;16.234;2022-12-10T06:35:47;97700.06;;;1.12;100.00
51099;BME280;37146;48.210;16.234;2022-12-10T06:38:12;97709.69;;;1.13;100.00
51099;BME280;37146;48.210;16.234;2022-12-10T06:40:39;97708.97;;;1.08;100.00
51099;BME280;37146;48.210;16.234;2022-12-10T06:43:04;97715.53;;;1.21;100.00
51099;BME280;37146;48.210;16.234;2022-12-10T06:45:29;97708.59;;;1.19;100.00
51099;BME280;37146;48.210;16.234;2022-12-10T06:47:54;97696.50;;;1.13;100.00
51099;BME280;37146;48.210;16.234;2022-12-10T06:50:19;97695.75;;;1.10;100.00
51099;BME280;37146;48.210;16.234;2022-12-10T06:52:45;97693.72;;;1.18;100.00
51099;BME280;37146;48.210;16.234;2022-12-10T06:55:10;97692.66;;;1.22;100.00
51099;BME280;37146;48.210;16.234;2022-12-10T06:57:35;97689.25;;;1.20;100.00
51099;BME280;37146;48.210;16.234;2022-12-10T07:00:00;97683.19;;;1.18;100.00
51099;BME280;37146;48.210;16.234;2022-12-10T07:02:26;97691.00;;;1.19;100.00
51099;BME280;37146;48.210;16.234;2022-12-10T07:04:51;97675.59;;;1.08;100.00
51099;BME280;37146;48.210;16.234;2022-12-10T07:07:16;97679.72;;;1.16;100.00
51099;BME280;37146;48.210;16.234;2022-12-10T07:09:41;97677.03;;;1.17;100.00
51099;BME280;37146;48.210;16.234;2022-12-10T07:12:06;97671.03;;;1.14;100.00
51099;BME280;37146;48.210;16.234;2022-12-10T07:14:32;97676.19;;;1.17;100.00
51099;BME280;37146;48.210;16.234;2022-12-10T07:16:57;97676.19;;;1.17;100.00
51099;BME280;37146;48.210;16.234;2022-12-10T07:19:22;97673.72;;;1.12;100.00
51099;BME280;37146;48.210;16.234;2022-12-10T07:21:47;97687.69;;;1.14;100.00
51099;BME280;37146;48.210;16.234;2022-12-10T07:24:14;97685.00;;;1.16;100.00
51099;BME280;37146;48.210;16.234;2022-12-10T07:26:41;97683.28;;;1.15;100.00
51099;BME280;37146;48.210;16.234;2022-12-10T07:29:07;97678.91;;;1.14;100.00
51099;BME280;37146;48.210;16.234;2022-12-10T07:31:35;97676.19;;;1.17;100.00
51099;BME280;37146;48.210;16.234;2022-12-10T07:34:00;97678.25;;;1.08;100.00
51099;BME280;37146;48.210;16.234;2022-12-10T07:36:26;97677.03;;;1.17;100.00
51099;BME280;37146;48.210;16.234;2022-12-10T07:38:51;97662.00;;;1.21;100.00
51099;BME280;37146;48.210;16.234;2022-12-10T07:41:17;97670.69;;;1.23;100.00
51099;BME280;37146;48.210;16.234;2022-12-10T07:43:43;97668.19;;;1.20;100.00
51099;BME280;37146;48.210;16.234;2022-12-10T07:46:13;97661.94;;;1.22;100.00
51099;BME280;37146;48.210;16.234;2022-12-10T07:48:39;97663.66;;;1.23;100.00
51099;BME280;37146;48.210;16.234;2022-12-10T07:51:05;97665.56;;;1.20;100.00
51099;BME280;37146;48.210;16.234;2022-12-10T07:53:30;97649.84;;;1.17;100.00
51099;BME280;37146;48.210;16.234;2022-12-10T07:55:55;97652.47;;;1.17;100.00
51099;BME280;37146;48.210;16.234;2022-12-10T07:58:21;97652.41;;;1.18;100.00
51099;BME280;37146;48.210;16.234;2022-12-10T08:00:46;97656.84;;;1.18;100.00
51099;BME280;37146;48.210;16.234;2022-12-10T08:03:11;97659.75;;;1.10;100.00
51099;BME280;37146;48.210;16.234;2022-12-10T08:05:36;97665.56;;;1.20;100.00
51099;BME280;37146;48.210;16.234;2022-12-10T08:08:02;97666.81;;;1.33;100.00
51099;BME280;37146;48.210;16.234;2022-12-10T08:10:27;97663.41;;;1.31;100.00
51099;BME280;37146;48.210;16.234;2022-12-10T08:12:52;97662.53;;;1.31;100.00
51099;BME280;37146;48.210;16.234;2022-12-10T08:15:17;97654.72;;;1.28;100.00
51099;BME280;37146;48.210;16.234;2022-12-10T08:17:43;97655.66;;;1.27;100.00
51099;BME280;37146;48.210;16.234;2022-12-10T08:20:08;97661.53;;;1.33;100.00
51099;BME280;37146;48.210;16.234;2022-12-10T08:22:33;97659.03;;;1.30;100.00
51099;BME280;37146;48.210;16.234;2022-12-10T08:24:59;97667.78;;;1.31;100.00
51099;BME280;37146;48.210;16.234;2022-12-10T08:27:24;97669.41;;;1.35;100.00
51099;BME280;37146;48.210;16.234;2022-12-10T08:29:49;97666.59;;;1.39;100.00
51099;BME280;37146;48.210;16.234;2022-12-10T08:32:15;97667.28;;;1.45;100.00
51099;BME280;37146;48.210;16.234;2022-12-10T08:34:40;97664.25;;;1.32;100.00
51099;BME280;37146;48.210;16.234;2022-12-10T08:37:05;97668.44;;;1.37;100.00
51099;BME280;37146;48.210;16.234;2022-12-10T08:39:30;97668.50;;;1.36;100.00
51099;BME280;37146;48.210;16.234;2022-12-10T08:41:56;97670.78;;;1.45;100.00
51099;BME280;37146;48.210;16.234;2022-12-10T08:44:21;97678.88;;;1.41;100.00
51099;BME280;37146;48.210;16.234;2022-12-10T08:46:46;97676.44;;;1.34;100.00
51099;BME280;37146;48.210;16.234;2022-12-10T08:49:11;97673.69;;;1.37;100.00
51099;BME280;37146;48.210;16.234;2022-12-10T08:51:37;97677.13;;;1.39;100.00
51099;BME280;37146;48.210;16.234;2022-12-10T08:54:02;97673.47;;;1.44;100.00
51099;BME280;37146;48.210;16.234;2022-12-10T08:56:27;97681.50;;;1.41;100.00
51099;BME280;37146;48.210;16.234;2022-12-10T08:58:53;97698.63;;;1.52;100.00
51099;BME280;37146;48.210;16.234;2022-12-10T09:01:18;97687.91;;;1.57;100.00
51099;BME280;37146;48.210;16.234;2022-12-10T09:03:43;97699.50;;;1.53;100.00
51099;BME280;37146;48.210;16.234;2022-12-10T09:06:10;97696.81;;;1.54;100.00
51099;BME280;37146;48.210;16.234;2022-12-10T09:08:36;97699.06;;;1.65;100.00
51099;BME280;37146;48.210;16.234;2022-12-10T09:11:09;97692.28;;;1.58;100.00
51099;BME280;37146;48.210;16.234;2022-12-10T09:13:34;97694.16;;;1.54;100.00
51099;BME280;37146;48.210;16.234;2022-12-10T09:15:59;97699.25;;;1.59;100.00
51099;BME280;37146;48.210;16.234;2022-12-10T09:18:25;97701.78;;;1.62;100.00
51099;BME280;37146;48.210;16.234;2022-12-10T09:20:50;97707.28;;;1.56;100.00
51099;BME280;37146;48.210;16.234;2022-12-10T09:23:15;97707.16;;;1.59;100.00
51099;BME280;37146;48.210;16.234;2022-12-10T09:25:40;97705.91;;;1.69;100.00
51099;BME280;37146;48.210;16.234;2022-12-10T09:28:06;97702.25;;;1.74;100.00
51099;BME280;37146;48.210;16.234;2022-12-10T09:30:31;97698.06;;;1.68;100.00
51099;BME280;37146;48.210;16.234;2022-12-10T09:32:57;97693.44;;;1.75;100.00
51099;BME280;37146;48.210;16.234;2022-12-10T09:35:23;97682.81;;;1.76;100.00
51099;BME280;37146;48.210;16.234;2022-12-10T09:37:49;97681.97;;;1.76;100.00
51099;BME280;37146;48.210;16.234;2022-12-10T09:40:15;97685.72;;;1.70;100.00
51099;BME280;37146;48.210;16.234;2022-12-10T09:42:50;97676.84;;;1.71;100.00
51099;BME280;37146;48.210;16.234;2022-12-10T09:47:52;97683.63;;;1.78;100.00
51099;BME280;37146;48.210;16.234;2022-12-10T09:51:23;97685.63;;;1.72;100.00
51099;BME280;37146;48.210;16.234;2022-12-10T09:53:17;97691.53;;;1.78;100.00
51099;BME280;37146;48.210;16.234;2022-12-10T09:55:44;97690.50;;;1.82;100.00
51099;BME280;37146;48.210;16.234;2022-12-10T09:58:13;97693.19;;;1.81;100.00
51099;BME280;37146;48.210;16.234;2022-12-10T10:00:41;97703.00;;;1.77;100.00
51099;BME280;37146;48.210;16.234;2022-12-10T10:03:12;97694.19;;;1.78;100.00
51099;BME280;37146;48.210;16.234;2022-12-10T10:05:39;97692.00;;;1.90;100.00
51099;BME280;37146;48.210;16.234;2022-12-10T10:08:06;97691.47;;;1.80;100.00
51099;BME280;37146;48.210;16.234;2022-12-10T10:10:37;97688.22;;;1.73;100.00
51099;BME280;37146;48.210;16.234;2022-12-10T10:15:32;97687.81;;;1.84;100.00
51099;BME280;37146;48.210;16.234;2022-12-10T10:17:59;97677.28;;;1.84;100.00
51099;BME280;37146;48.210;16.234;2022-12-10T10:20:27;97676.91;;;1.93;100.00
51099;BME280;37146;48.210;16.234;2022-12-10T10:22:53;97673.44;;;1.93;100.00
51099;BME280;37146;48.210;16.234;2022-12-10T10:25:20;97669.91;;;1.92;100.00
51099;BME280;37146;48.210;16.234;2022-12-10T10:27:46;97664.28;;;2.01;100.00
51099;BME280;37146;48.210;16.234;2022-12-10T10:30:15;97670.66;;;1.96;100.00
51099;BME280;37146;48.210;16.234;2022-12-10T10:35:07;97657.28;;;2.00;100.00
51099;BME280;37146;48.210;16.234;2022-12-10T10:40:00;97643.47;;;1.94;100.00
51099;BME280;37146;48.210;16.234;2022-12-10T10:44:57;97663.19;;;1.85;100.00
51099;BME280;37146;48.210;16.234;2022-12-10T10:47:30;97662.94;;;1.91;100.00
51099;BME280;37146;48.210;16.234;2022-12-10T10:49:56;97667.53;;;1.86;100.00
51099;BME280;37146;48.210;16.234;2022-12-10T10:52:21;97658.00;;;1.82;100.00
51099;BME280;37146;48.210;16.234;2022-12-10T10:54:46;97644.66;;;1.87;100.00
51099;BME280;37146;48.210;16.234;2022-12-10T10:57:14;97652.97;;;1.76;100.00
51099;BME280;37146;48.210;16.234;2022-12-10T10:59:41;97647.56;;;1.79;100.00
51099;BME280;37146;48.210;16.234;2022-12-10T11:07:00;97646.81;;;1.99;100.00
51099;BME280;37146;48.210;16.234;2022-12-10T11:09:29;97635.06;;;2.08;100.00
51099;BME280;37146;48.210;16.234;2022-12-10T11:12:02;97628.06;;;2.07;100.00
51099;BME280;37146;48.210;16.234;2022-12-10T11:14:32;97628.88;;;2.09;100.00
51099;BME280;37146;48.210;16.234;2022-12-10T11:17:02;97614.72;;;2.10;100.00
51099;BME280;37146;48.210;16.234;2022-12-10T11:19:29;97613.47;;;2.20;100.00
51099;BME280;37146;48.210;16.234;2022-12-10T11:21:54;97606.28;;;2.24;100.00
51099;BME280;37146;48.210;16.234;2022-12-10T11:24:20;97607.38;;;2.18;100.00
51099;BME280;37146;48.210;16.234;2022-12-10T11:29:33;97594.22;;;2.39;100.00
51099;BME280;37146;48.210;16.234;2022-12-10T11:39:51;97598.00;;;2.54;100.00
51099;BME280;37146;48.210;16.234;2022-12-10T11:44:49;97593.56;;;2.54;100.00
51099;BME280;37146;48.210;16.234;2022-12-10T11:53:02;97591.47;;;2.42;100.00
51099;BME280;37146;48.210;16.234;2022-12-10T11:55:39;97585.78;;;2.30;100.00
51099;BME280;37146;48.210;16.234;2022-12-10T11:58:12;97592.28;;;2.22;100.00
51099;BME280;37146;48.210;16.234;2022-12-10T12:00:42;97593.63;;;2.10;100.00
51099;BME280;37146;48.210;16.234;2022-12-10T12:03:20;97599.66;;;2.13;100.00
51099;BME280;37146;48.210;16.234;2022-12-10T12:13:31;97585.00;;;2.28;100.00
51099;BME280;37146;48.210;16.234;2022-12-10T12:16:02;97592.72;;;2.11;100.00
51099;BME280;37146;48.210;16.234;2022-12-10T12:18:49;97590.94;;;2.11;100.00
51099;BME280;37146;48.210;16.234;2022-12-10T12:21:16;97594.72;;;2.04;100.00
51099;BME280;37146;48.210;16.234;2022-12-10T12:23:46;97589.88;;;2.15;100.00
51099;BME280;37146;48.210;16.234;2022-12-10T12:26:37;97593.50;;;2.13;100.00
51099;BME280;37146;48.210;16.234;2022-12-10T12:29:13;97598.06;;;2.09;100.00
51099;BME280;37146;48.210;16.234;2022-12-10T12:31:41;97597.31;;;2.06;100.00
51099;BME280;37146;48.210;16.234;2022-12-10T12:34:18;97596.59;;;2.02;100.00
51099;BME280;37146;48.210;16.234;2022-12-10T12:36:45;97591.19;;;2.05;100.00
51099;BME280;37146;48.210;16.234;2022-12-10T12:41:45;97590.56;;;2.21;100.00
51099;BME280;37146;48.210;16.234;2022-12-10T12:49:39;97585.59;;;2.13;100.00
51099;BME280;37146;48.210;16.234;2022-12-10T12:54:32;97588.78;;;2.21;100.00
51099;BME280;37146;48.210;16.234;2022-12-10T13:04:32;97591.19;;;2.05;100.00
51099;BME280;37146;48.210;16.234;2022-12-10T13:09:42;97586.78;;;2.06;100.00
51099;BME280;37146;48.210;16.234;2022-12-10T13:12:29;97588.09;;;1.94;100.00
51099;BME280;37146;48.210;16.234;2022-12-10T13:17:37;97604.91;;;1.91;100.00
51099;BME280;37146;48.210;16.234;2022-12-10T13:20:24;97609.28;;;1.92;100.00
51099;BME280;37146;48.210;16.234;2022-12-10T13:22:55;97617.06;;;1.95;100.00
51099;BME280;37146;48.210;16.234;2022-12-10T13:25:36;97625.47;;;1.83;100.00
51099;BME280;37146;48.210;16.234;2022-12-10T13:28:15;97628.84;;;1.87;100.00
51099;BME280;37146;48.210;16.234;2022-12-10T13:30:41;97630.44;;;1.91;100.00
51099;BME280;37146;48.210;16.234;2022-12-10T13:33:24;97630.31;;;1.94;100.00
51099;BME280;37146;48.210;16.234;2022-12-10T13:35:56;97634.91;;;1.89;100.00
51099;BME280;37146;48.210;16.234;2022-12-10T13:38:22;97636.81;;;1.85;100.00
51099;BME280;37146;48.210;16.234;2022-12-10T13:40:59;97628.91;;;1.85;100.00
51099;BME280;37146;48.210;16.234;2022-12-10T13:43:43;97628.84;;;1.87;100.00
51099;BME280;37146;48.210;16.234;2022-12-10T13:46:50;97626.25;;;1.85;100.00
51099;BME280;37146;48.210;16.234;2022-12-10T13:49:16;97629.00;;;1.82;100.00
51099;BME280;37146;48.210;16.234;2022-12-10T13:54:32;97624.00;;;1.76;100.00
51099;BME280;37146;48.210;16.234;2022-12-10T14:02:20;97628.66;;;1.67;100.00
51099;BME280;37146;48.210;16.234;2022-12-10T14:07:51;97621.22;;;1.79;100.00
51099;BME280;37146;48.210;16.234;2022-12-10T14:10:17;97623.63;;;1.85;100.00
51099;BME280;37146;48.210;16.234;2022-12-10T14:12:43;97619.50;;;1.78;100.00
51099;BME280;37146;48.210;16.234;2022-12-10T14:15:18;97622.03;;;1.81;100.00
51099;BME280;37146;48.210;16.234;2022-12-10T14:17:44;97622.03;;;1.81;100.00
51099;BME280;37146;48.210;16.234;2022-12-10T14:20:14;97623.84;;;1.79;100.00
51099;BME280;37146;48.210;16.234;2022-12-10T14:22:45;97626.63;;;1.76;100.00
51099;BME280;37146;48.210;16.234;2022-12-10T14:25:13;97634.69;;;1.71;100.00
51099;BME280;37146;48.210;16.234;2022-12-10T14:27:39;97626.63;;;1.76;100.00